• Join FlightAware (Why Join?)
  • Login
  • US Flag GB Flag 
04:14 EDT


 

Airport Tracker/Info


-or-


 

Live Flight TrackerFlight Track Log ✈ CPZ5750 ✈ 14-Jul-2013 ✈ KMSP - KALB

Flight Track Log - Related Links

Times and Time Zones

All times are in EDT time to prevent confusion due to time zone crossing. See the CPZ5750 flight status page for this flight to view local times or setup timezone preferences in your user account.

Time Position Orientation Groundspeed Altitude Reporting Facility
EDT Latitude Longitude Course Direction KTS MPH feet Rate Location/Type
16:40 44.8667 -93.1167 70° East 194 223 2,900  Level Minneapolis TRACON
16:41 44.8967 -93.0419 60° Northeast 262 302 4,800 1,980 Climbing Minneapolis Center
16:42 45.0366 -92.6303 68° East  Level FlightAware Approximate
16:42 44.9706 -93.0025 21° North 285 328 7,100  Level Minneapolis Center
16:43 45.0787 -92.4831 68° East  Level FlightAware Approximate
16:43 45.0461 -92.9086 41° Northeast 305 351 10,300  Level Minneapolis Center
16:44 45.1127 -92.3326 70° East  Level FlightAware Approximate
16:44 45.1167 -92.8197 42° Northeast 347 399 11,500  Level Minneapolis Center
16:45 45.1502 -92.1830 70° East  Level FlightAware Approximate
16:45 45.1936 -92.7242 41° Northeast 368 423 13,600  Level Minneapolis Center
16:46 45.2569 -92.6100 52° Northeast 372 428 15,600 1,620 Climbing Minneapolis Center
16:47 45.2789 -92.4614 78° East 383 441 17,000 1,320 Climbing Minneapolis Center
16:48 45.3006 -92.3078 79° East 394 453 18,400 1,500 Climbing Minneapolis Center
16:49 45.3264 -92.1161 79° East 409 471 20,200 1,500 Climbing Minneapolis Center
16:50 45.3503 -91.9525 78° East 420 483 21,500 1,200 Climbing Minneapolis Center
16:51 45.3733 -91.7833 79° East 434 499 22,700 1,140 Climbing Minneapolis Center
16:52 45.3958 -91.6097 79° East 444 511 23,900 1,080 Climbing Minneapolis Center
16:53 45.4175 -91.4333 80° East 451 519 25,000 960 Climbing Minneapolis Center
16:54 45.4431 -91.2431 79° East 457 526 26,000 900 Climbing Minneapolis Center
16:55 45.4664 -91.0606 80° East 466 536 26,900 900 Climbing Minneapolis Center
16:56 45.4542 -90.8422 94° East 463 533 27,900 780 Climbing Minneapolis Center
16:57 45.4350 -90.6594 98° East 468 539 28,600 720 Climbing Minneapolis Center
16:58 45.4144 -90.4719 99° East 479 551 29,400 960 Climbing Minneapolis Center
16:59 45.3939 -90.2878 99° East 476 548 30,700 1,080 Climbing Minneapolis Center
17:01 45.3728 -90.1089 99° East 465 535 31,800 900 Climbing Minneapolis Center
17:02 45.3489 -89.8958 99° East 458 527 32,700 720 Climbing Minneapolis Center
17:03 45.3286 -89.7183 99° East 457 526 33,400 900 Climbing Minneapolis Center
17:04 45.3064 -89.5411 100° East 458 527 34,600 720 Climbing Minneapolis Center
17:05 45.2864 -89.3697 99° East 446 513 35,000 180 Climbing Minneapolis Center
17:06 45.2653 -89.1958 100° East 448 516 35,000  Level Minneapolis Center
17:07 45.2394 -88.9875 100° East 451 519 35,000  Level Minneapolis Center
17:08 45.2181 -88.8103 100° East 455 524 35,000  Level Minneapolis Center
17:09 45.1953 -88.6364 100° East 453 521 35,000  Level Minneapolis Center
17:10 45.1739 -88.4667 100° East 450 518 35,000  Level Minneapolis Center
17:11 45.1506 -88.2903 101° East 455 524 35,000  Level Minneapolis Center
17:12 45.1239 -88.0842 100° East 446 513 35,000  Level Minneapolis Center
17:13 45.1014 -87.9103 100° East 448 516 35,000  Level Minneapolis Center
17:14 45.0781 -87.7367 101° East 448 516 35,000  Level Minneapolis Center
17:15 45.0539 -87.5636 101° East 448 516 35,000  Level Minneapolis Center
17:16 45.0289 -87.3906 101° East 450 518 35,000  Level Minneapolis Center
17:17 45.0047 -87.2192 101° East 445 512 35,000  Level Minneapolis Center
17:18 44.9753 -87.0100 101° East 452 520 35,000  Level Minneapolis Center
17:19 44.9508 -86.8369 101° East 452 520 35,000  Level Minneapolis Center
17:20 44.9275 -86.6756 101° East 453 521 35,000  Level Minneapolis Center
17:21 44.9022 -86.5011 102° East 455 524 35,000  Level Minneapolis Center
17:22 44.8719 -86.2958 102° East 449 517 35,000  Level Minneapolis Center
17:23 44.8456 -86.1236 102° East 448 516 35,000  Level Minneapolis Center
17:24 44.8197 -85.9528 102° East 448 516 35,000  Level Minneapolis Center
17:25 44.7936 -85.7822 102° East 446 513 35,000  Level Minneapolis Center
17:26 44.7633 -85.5836 102° East 449 517 35,000  Level Minneapolis Center
17:27 44.7361 -85.4119 103° East 450 518 35,000  Level Minneapolis Center
17:28 44.7094 -85.2419 102° East 450 518 35,000  Level Minneapolis Center
17:29 44.6822 -85.0717 103° East 449 517 35,000  Level Minneapolis Center
17:31 44.6550 -84.9033 103° East 445 512 35,000  Level Minneapolis Center
17:32 44.6269 -84.7325 103° East 448 516 35,000  Level Minneapolis Center
17:33 44.6003 -84.5631 102° East 446 513 35,000  Level Minneapolis Center
17:34 44.5642 -84.3592 104° East 449 517 35,000  Level Minneapolis Center
17:35 44.5361 -84.1881 103° East 451 519 35,000  Level Minneapolis Center
17:36 44.5075 -84.0178 103° East 451 519 35,000  Level Minneapolis Center
17:37 44.4789 -83.8472 103° East 451 519 35,000  Level Minneapolis Center
17:38 44.4483 -83.6794 104° East 449 517 35,000  Level Minneapolis Center
17:39 44.4203 -83.5114 103° East 445 512 35,000  Level Minneapolis Center
17:40 44.3842 -83.3089 104° East 448 516 35,000  Level Minneapolis Center
17:41 44.3547 -83.1417 104° East 445 512 35,000  Level Minneapolis Center
17:41 44.3167 -83.0333 116° Southeast 450 518 35,000  Level Toronto Center
17:42 44.2833 -82.8667 106° East 450 518 35,000  Level Toronto Center
17:43 44.2500 -82.7000 106° East 440 506 35,000  Level Toronto Center
17:44 44.2333 -82.5333 98° East 440 506 35,000  Level Toronto Center
17:45 44.2000 -82.3500 104° East 440 506 35,000  Level Toronto Center
17:46 44.1667 -82.2167 109° East 440 506 35,000  Level Toronto Center
17:47 44.1333 -82.0333 104° East 440 506 35,000  Level Toronto Center
17:48 44.1167 -81.8667 98° East 440 506 35,000  Level Toronto Center
17:49 44.0833 -81.7000 106° East 440 506 35,000  Level Toronto Center
17:50 44.0500 -81.5333 105° East 440 506 35,000  Level Toronto Center
17:51 44.0167 -81.3667 105° East 440 506 35,000  Level Toronto Center
17:52 43.9667 -81.2000 113° Southeast 440 506 35,000  Level Toronto Center
17:53 43.9333 -81.0500 107° East 440 506 35,000  Level Toronto Center
17:54 43.9000 -80.8833 105° East 440 506 35,000  Level Toronto Center
17:55 43.8833 -80.7167 98° East 440 506 35,000  Level Toronto Center
17:56 43.8500 -80.5500 105° East 440 506 35,000  Level Toronto Center
17:57 43.8167 -80.4000 107° East 440 506 35,000  Level Toronto Center
17:58 43.7833 -80.2333 105° East 440 506 35,000  Level Toronto Center
17:59 43.7500 -80.0667 105° East 440 506 35,000  Level Toronto Center
18:00 43.7167 -79.9167 107° East 440 506 35,000  Level Toronto Center
18:01 43.6833 -79.7500 105° East 440 506 35,000  Level Toronto Center
18:02 43.6500 -79.5833 105° East 450 518 35,000  Level Toronto Center
18:03 43.6167 -79.4000 104° East 450 518 35,000  Level Toronto Center
18:04 43.6000 -79.2333 98° East 430 495 35,000  Level Toronto Center
18:05 43.5833 -79.0833 99° East 440 506 35,000  Level Toronto Center
18:06 43.5500 -78.9167 105° East 440 506 35,000  Level Toronto Center
18:07 43.5333 -78.7667 99° East 440 506 35,000  Level Toronto Center
18:08 43.5167 -78.5833 97° East 440 506 35,000  Level Toronto Center
18:09 43.4833 -78.4167 105° East 440 506 35,000 -300 Level Toronto Center
18:10 43.4500 -78.2500 105° East 440 506 34,400 -780 Descending Toronto Center
18:12 43.4506 -78.0956 90° East 436 502 33,400 -720 Descending Cleveland Center
18:13 43.4261 -77.9306 101° East 436 502 33,000 -540 Descending Cleveland Center
18:14 43.4033 -77.7631 101° East 436 502 32,400 -840 Descending Cleveland Center
18:15 43.3761 -77.5958 103° East 441 507 31,400 -1,020 Descending Cleveland Center
18:16 43.3508 -77.4256 101° East 452 520 30,400 -840 Descending Cleveland Center
18:17 43.2833 -77.0667 104° East 450 518 29,000 -540 Descending Toronto Center
18:18 43.2667 -76.9167 99° East 450 518 29,000  Level Toronto Center
18:19 43.2500 -76.7333 97° East 450 518 29,000  Level Toronto Center
18:20 43.2000 -76.5667 112° Southeast 450 518 29,000 -480 Level Toronto Center
18:21 43.1833 -76.4167 99° East 450 518 28,100 -1,020 Descending Toronto Center
18:22 43.1667 -76.2500 98° East 450 518 27,000 -1,020 Descending Toronto Center
18:23 43.1333 -76.0667 104° East 450 518 26,100 -1,020 Descending Toronto Center
18:24 43.1000 -75.9167 107° East 450 518 25,000 -1,080 Descending Toronto Center
18:25 43.0500 -75.7500 112° Southeast 440 506 24,000 -1,020 Descending Toronto Center
18:26 42.9833 -75.6000 121° Southeast 440 506 23,000 -1,020 Descending Toronto Center
18:27 42.9333 -75.4667 117° Southeast 430 495 22,000 -1,500 Descending Toronto Center
18:28 42.8667 -75.3333 124° Southeast 420 483 20,000 -1,860 Descending Toronto Center
18:29 42.8500 -75.1833 99° East 410 472 18,300 -1,740 Descending Toronto Center
18:30 42.8333 -75.0167 98° East 400 460 16,600 -1,680 Descending Toronto Center
18:31 42.8333 -74.8833 90° East 390 449 15,000 -1,560 Descending Toronto Center
18:32 42.8325 -74.7872 91° East 375 432 13,500 -1,560 Descending Boston Center
18:34 42.8172 -74.6253 97° East 366 421 11,700 -1,200 Descending Boston Center
18:35 42.8069 -74.4975 96° East 334 384 11,000 -960 Descending Boston Center
18:36 42.8172 -74.3847 83° East 301 346 9,800 -1,560 Descending Boston Center
18:37 42.8400 -74.2722 75° East 307 353 7,900 -1,800 Descending Boston Center
18:38 42.8583 -74.1650 77° East 297 342 6,200 -1,860 Descending Boston Center
18:39 42.8808 -74.0553 74° East 285 328 4,200 -1,620 Descending Boston Center
18:40 42.9011 -73.9508 75° East 253 291 3,000 -660 Descending Boston Center
18:41 42.9106 -73.8603 82° East 229 264 2,900 -480 Descending Boston Center
18:42 42.8758 -73.8056 131° Southeast 209 241 2,100 -720 Descending Boston Center
18:43 42.8236 -73.8103 184° South 176 203 1,500 -720 Descending Boston Center
18:44 42.7797 -73.8092 179° South 130 150 700 -720 Descending Boston Center